sensor_id;sensor_type;location;lat;lon;timestamp;pressure;altitude;pressure_sealevel;temperature
48894;BMP280;34710;35.798;139.446;2022-11-03T00:01:41;100602.15;;;30.19
48894;BMP280;34710;35.798;139.446;2022-11-03T00:04:12;100601.45;;;30.59
48894;BMP280;34710;35.798;139.446;2022-11-03T00:06:43;100590.76;;;29.20
48894;BMP280;34710;35.798;139.446;2022-11-03T00:09:15;100594.19;;;30.42
48894;BMP280;34710;35.798;139.446;2022-11-03T00:11:47;100594.59;;;31.16
48894;BMP280;34710;35.798;139.446;2022-11-03T00:14:16;100598.19;;;31.91
48894;BMP280;34710;35.798;139.446;2022-11-03T00:16:45;100598.45;;;32.80
48894;BMP280;34710;35.798;139.446;2022-11-03T00:19:15;100600.43;;;32.10
48894;BMP280;34710;35.798;139.446;2022-11-03T00:21:45;100605.68;;;32.04
48894;BMP280;34710;35.798;139.446;2022-11-03T00:24:14;100600.09;;;32.96
48894;BMP280;34710;35.798;139.446;2022-11-03T00:26:44;100587.27;;;34.00
48894;BMP280;34710;35.798;139.446;2022-11-03T00:29:14;100571.26;;;34.91
48894;BMP280;34710;35.798;139.446;2022-11-03T00:31:44;100555.13;;;35.14
48894;BMP280;34710;35.798;139.446;2022-11-03T00:34:13;100553.13;;;35.96
48894;BMP280;34710;35.798;139.446;2022-11-03T00:36:43;100557.98;;;36.19
48894;BMP280;34710;35.798;139.446;2022-11-03T00:39:12;100557.70;;;36.18
48894;BMP280;34710;35.798;139.446;2022-11-03T00:41:42;100563.30;;;36.50
48894;BMP280;34710;35.798;139.446;2022-11-03T00:44:11;100568.71;;;36.56
48894;BMP280;34710;35.798;139.446;2022-11-03T00:46:40;100570.12;;;36.58
48894;BMP280;34710;35.798;139.446;2022-11-03T00:49:10;100563.59;;;36.82
48894;BMP280;34710;35.798;139.446;2022-11-03T00:51:40;100548.81;;;37.20
48894;BMP280;34710;35.798;139.446;2022-11-03T00:54:09;100537.45;;;37.37
48894;BMP280;34710;35.798;139.446;2022-11-03T00:56:40;100532.58;;;37.35
48894;BMP280;34710;35.798;139.446;2022-11-03T00:59:10;100524.76;;;37.64
48894;BMP280;34710;35.798;139.446;2022-11-03T01:01:41;100520.43;;;37.85
48894;BMP280;34710;35.798;139.446;2022-11-03T01:04:11;100517.91;;;37.92
48894;BMP280;34710;35.798;139.446;2022-11-03T01:06:42;100504.67;;;38.52
48894;BMP280;34710;35.798;139.446;2022-11-03T01:09:12;100494.97;;;38.53
48894;BMP280;34710;35.798;139.446;2022-11-03T01:11:41;100487.46;;;38.54
48894;BMP280;34710;35.798;139.446;2022-11-03T01:14:13;100484.11;;;38.69
48894;BMP280;34710;35.798;139.446;2022-11-03T01:16:43;100476.32;;;37.99
48894;BMP280;34710;35.798;139.446;2022-11-03T01:19:12;100468.44;;;37.46
48894;BMP280;34710;35.798;139.446;2022-11-03T01:21:42;100455.12;;;38.14
48894;BMP280;34710;35.798;139.446;2022-11-03T01:24:12;100443.98;;;38.40
48894;BMP280;34710;35.798;139.446;2022-11-03T01:26:41;100435.86;;;38.18
48894;BMP280;34710;35.798;139.446;2022-11-03T01:29:10;100426.65;;;38.72
48894;BMP280;34710;35.798;139.446;2022-11-03T01:31:39;100425.90;;;39.23
48894;BMP280;34710;35.798;139.446;2022-11-03T01:34:11;100426.81;;;39.36
48894;BMP280;34710;35.798;139.446;2022-11-03T01:36:41;100418.10;;;39.35
48894;BMP280;34710;35.798;139.446;2022-11-03T01:39:12;100408.24;;;39.20
48894;BMP280;34710;35.798;139.446;2022-11-03T01:41:43;100408.59;;;39.38
48894;BMP280;34710;35.798;139.446;2022-11-03T01:44:31;100416.20;;;38.80
48894;BMP280;34710;35.798;139.446;2022-11-03T01:47:10;100412.50;;;38.18
48894;BMP280;34710;35.798;139.446;2022-11-03T01:49:44;100402.03;;;38.20
48894;BMP280;34710;35.798;139.446;2022-11-03T01:52:18;100400.71;;;38.69
48894;BMP280;34710;35.798;139.446;2022-11-03T01:54:50;100403.16;;;38.31
48894;BMP280;34710;35.798;139.446;2022-11-03T01:57:24;100409.78;;;38.54
48894;BMP280;34710;35.798;139.446;2022-11-03T01:59:55;100416.46;;;37.12
48894;BMP280;34710;35.798;139.446;2022-11-03T02:02:27;100410.40;;;37.53
48894;BMP280;34710;35.798;139.446;2022-11-03T02:04:58;100398.81;;;37.26
48894;BMP280;34710;35.798;139.446;2022-11-03T02:07:34;100400.34;;;36.24
48894;BMP280;34710;35.798;139.446;2022-11-03T02:10:05;100395.29;;;34.93
48894;BMP280;34710;35.798;139.446;2022-11-03T02:12:36;100389.00;;;33.71
48894;BMP280;34710;35.798;139.446;2022-11-03T02:15:07;100384.93;;;33.06
48894;BMP280;34710;35.798;139.446;2022-11-03T02:17:40;100378.34;;;30.63
48894;BMP280;34710;35.798;139.446;2022-11-03T02:20:13;100375.64;;;31.67
48894;BMP280;34710;35.798;139.446;2022-11-03T02:22:59;100373.46;;;31.53
48894;BMP280;34710;35.798;139.446;2022-11-03T02:25:36;100366.13;;;30.53
48894;BMP280;34710;35.798;139.446;2022-11-03T02:28:08;100358.42;;;31.60
48894;BMP280;34710;35.798;139.446;2022-11-03T02:30:41;100354.08;;;32.38
48894;BMP280;34710;35.798;139.446;2022-11-03T02:33:26;100345.63;;;33.18
48894;BMP280;34710;35.798;139.446;2022-11-03T02:36:00;100337.55;;;34.47
48894;BMP280;34710;35.798;139.446;2022-11-03T02:38:34;100325.25;;;34.80
48894;BMP280;34710;35.798;139.446;2022-11-03T02:41:07;100317.49;;;35.85
48894;BMP280;34710;35.798;139.446;2022-11-03T02:43:37;100312.30;;;35.32
48894;BMP280;34710;35.798;139.446;2022-11-03T02:46:07;100309.16;;;35.04
48894;BMP280;34710;35.798;139.446;2022-11-03T02:48:37;100305.57;;;35.78
48894;BMP280;34710;35.798;139.446;2022-11-03T02:51:06;100296.28;;;36.00
48894;BMP280;34710;35.798;139.446;2022-11-03T02:53:39;100283.71;;;36.26
48894;BMP280;34710;35.798;139.446;2022-11-03T02:56:13;100273.26;;;35.79
48894;BMP280;34710;35.798;139.446;2022-11-03T02:58:50;100265.79;;;35.09
48894;BMP280;34710;35.798;139.446;2022-11-03T03:01:27;100253.28;;;36.23
48894;BMP280;34710;35.798;139.446;2022-11-03T03:04:02;100241.53;;;36.84
48894;BMP280;34710;35.798;139.446;2022-11-03T03:06:35;100244.94;;;34.42
48894;BMP280;34710;35.798;139.446;2022-11-03T03:09:08;100248.30;;;34.87
48894;BMP280;34710;35.798;139.446;2022-11-03T03:11:41;100246.68;;;34.56
48894;BMP280;34710;35.798;139.446;2022-11-03T03:14:14;100235.83;;;33.62
48894;BMP280;34710;35.798;139.446;2022-11-03T03:16:52;100229.33;;;34.18
48894;BMP280;34710;35.798;139.446;2022-11-03T03:19:35;100224.37;;;35.32
48894;BMP280;34710;35.798;139.446;2022-11-03T03:22:13;100218.20;;;36.31
48894;BMP280;34710;35.798;139.446;2022-11-03T03:24:50;100213.38;;;36.13
48894;BMP280;34710;35.798;139.446;2022-11-03T03:27:23;100210.56;;;34.87
48894;BMP280;34710;35.798;139.446;2022-11-03T03:29:57;100203.03;;;34.88
48894;BMP280;34710;35.798;139.446;2022-11-03T03:32:33;100201.87;;;35.93
48894;BMP280;34710;35.798;139.446;2022-11-03T03:35:06;100195.54;;;36.32
48894;BMP280;34710;35.798;139.446;2022-11-03T03:37:39;100191.37;;;36.29
48894;BMP280;34710;35.798;139.446;2022-11-03T03:40:12;100183.62;;;36.17
48894;BMP280;34710;35.798;139.446;2022-11-03T03:42:44;100172.17;;;35.89
48894;BMP280;34710;35.798;139.446;2022-11-03T03:45:15;100163.99;;;36.58
48894;BMP280;34710;35.798;139.446;2022-11-03T03:47:46;100155.73;;;36.74
48894;BMP280;34710;35.798;139.446;2022-11-03T03:50:15;100152.63;;;36.65
48894;BMP280;34710;35.798;139.446;2022-11-03T03:52:44;100149.77;;;35.51
48894;BMP280;34710;35.798;139.446;2022-11-03T03:55:18;100136.35;;;36.27
48894;BMP280;34710;35.798;139.446;2022-11-03T03:57:48;100133.51;;;34.52
48894;BMP280;34710;35.798;139.446;2022-11-03T04:00:17;100120.85;;;33.55
48894;BMP280;34710;35.798;139.446;2022-11-03T04:02:47;100116.17;;;32.19
48894;BMP280;34710;35.798;139.446;2022-11-03T04:05:16;100104.38;;;31.88
48894;BMP280;34710;35.798;139.446;2022-11-03T04:07:45;100098.60;;;30.99
48894;BMP280;34710;35.798;139.446;2022-11-03T04:10:15;100094.32;;;31.68
48894;BMP280;34710;35.798;139.446;2022-11-03T04:12:45;100095.12;;;31.94
48894;BMP280;34710;35.798;139.446;2022-11-03T04:15:14;100085.84;;;32.87
48894;BMP280;34710;35.798;139.446;2022-11-03T04:17:46;100080.48;;;32.78
48894;BMP280;34710;35.798;139.446;2022-11-03T04:20:15;100078.81;;;34.26
48894;BMP280;34710;35.798;139.446;2022-11-03T04:22:45;100081.48;;;34.67
48894;BMP280;34710;35.798;139.446;2022-11-03T04:25:15;100075.77;;;34.92
48894;BMP280;34710;35.798;139.446;2022-11-03T04:27:44;100073.99;;;34.25
48894;BMP280;34710;35.798;139.446;2022-11-03T04:30:16;100066.42;;;33.43
48894;BMP280;34710;35.798;139.446;2022-11-03T04:32:48;100071.43;;;34.64
48894;BMP280;34710;35.798;139.446;2022-11-03T04:35:21;100072.00;;;32.34
48894;BMP280;34710;35.798;139.446;2022-11-03T04:37:54;100062.03;;;31.95
48894;BMP280;34710;35.798;139.446;2022-11-03T04:40:24;100054.64;;;32.23
48894;BMP280;34710;35.798;139.446;2022-11-03T04:42:53;100057.41;;;33.18
48894;BMP280;34710;35.798;139.446;2022-11-03T04:45:25;100058.59;;;34.02
48894;BMP280;34710;35.798;139.446;2022-11-03T04:47:55;100061.19;;;33.92
48894;BMP280;34710;35.798;139.446;2022-11-03T04:50:26;100059.48;;;34.27
48894;BMP280;34710;35.798;139.446;2022-11-03T04:52:57;100058.15;;;34.68
48894;BMP280;34710;35.798;139.446;2022-11-03T04:55:26;100048.23;;;35.28
48894;BMP280;34710;35.798;139.446;2022-11-03T04:57:58;100045.17;;;35.92
48894;BMP280;34710;35.798;139.446;2022-11-03T05:00:29;100047.26;;;34.43
48894;BMP280;34710;35.798;139.446;2022-11-03T05:02:58;100043.65;;;34.19
48894;BMP280;34710;35.798;139.446;2022-11-03T05:05:28;100043.83;;;35.05
48894;BMP280;34710;35.798;139.446;2022-11-03T05:07:58;100044.24;;;35.64
48894;BMP280;34710;35.798;139.446;2022-11-03T05:10:29;100052.04;;;35.00
48894;BMP280;34710;35.798;139.446;2022-11-03T05:13:00;100052.27;;;34.36
48894;BMP280;34710;35.798;139.446;2022-11-03T05:15:34;100056.01;;;34.83
48894;BMP280;34710;35.798;139.446;2022-11-03T05:18:16;100055.26;;;35.07
48894;BMP280;34710;35.798;139.446;2022-11-03T05:20:50;100050.62;;;35.36
48894;BMP280;34710;35.798;139.446;2022-11-03T05:23:21;100043.10;;;34.69
48894;BMP280;34710;35.798;139.446;2022-11-03T05:25:52;100044.96;;;35.09
48894;BMP280;34710;35.798;139.446;2022-11-03T05:28:29;100050.74;;;35.49
48894;BMP280;34710;35.798;139.446;2022-11-03T05:30:58;100050.26;;;35.23
48894;BMP280;34710;35.798;139.446;2022-11-03T05:33:29;100042.40;;;34.99
48894;BMP280;34710;35.798;139.446;2022-11-03T05:36:06;100040.42;;;35.05
48894;BMP280;34710;35.798;139.446;2022-11-03T05:38:37;100040.11;;;35.10
48894;BMP280;34710;35.798;139.446;2022-11-03T05:41:15;100039.04;;;35.65
48894;BMP280;34710;35.798;139.446;2022-11-03T05:43:54;100043.04;;;35.61
48894;BMP280;34710;35.798;139.446;2022-11-03T05:46:23;100044.60;;;35.72
48894;BMP280;34710;35.798;139.446;2022-11-03T05:48:55;100049.08;;;35.69
48894;BMP280;34710;35.798;139.446;2022-11-03T05:51:27;100051.68;;;35.97
48894;BMP280;34710;35.798;139.446;2022-11-03T05:53:59;100049.17;;;35.84
48894;BMP280;34710;35.798;139.446;2022-11-03T05:56:31;100046.32;;;35.42
48894;BMP280;34710;35.798;139.446;2022-11-03T05:59:06;100045.48;;;35.09
48894;BMP280;34710;35.798;139.446;2022-11-03T06:01:37;100044.60;;;34.37
48894;BMP280;34710;35.798;139.446;2022-11-03T06:04:17;100041.76;;;34.30
48894;BMP280;34710;35.798;139.446;2022-11-03T06:06:51;100036.33;;;34.33
48894;BMP280;34710;35.798;139.446;2022-11-03T06:09:24;100030.46;;;34.36
48894;BMP280;34710;35.798;139.446;2022-11-03T06:11:57;100026.79;;;33.65
48894;BMP280;34710;35.798;139.446;2022-11-03T06:14:29;100028.26;;;33.82
48894;BMP280;34710;35.798;139.446;2022-11-03T06:17:01;100034.54;;;33.58
48894;BMP280;34710;35.798;139.446;2022-11-03T06:19:34;100035.71;;;33.50
48894;BMP280;34710;35.798;139.446;2022-11-03T06:22:13;100036.37;;;32.88
48894;BMP280;34710;35.798;139.446;2022-11-03T06:24:43;100028.65;;;32.74
48894;BMP280;34710;35.798;139.446;2022-11-03T06:27:14;100030.69;;;32.71
48894;BMP280;34710;35.798;139.446;2022-11-03T06:29:47;100030.20;;;32.74
48894;BMP280;34710;35.798;139.446;2022-11-03T06:32:17;100025.13;;;32.76
48894;BMP280;34710;35.798;139.446;2022-11-03T06:34:48;100018.88;;;32.25
48894;BMP280;34710;35.798;139.446;2022-11-03T06:37:21;100018.54;;;32.43
48894;BMP280;34710;35.798;139.446;2022-11-03T06:39:56;100021.65;;;32.32
48894;BMP280;34710;35.798;139.446;2022-11-03T06:42:28;100021.97;;;31.70
48894;BMP280;34710;35.798;139.446;2022-11-03T06:45:09;100020.52;;;31.29
48894;BMP280;34710;35.798;139.446;2022-11-03T06:47:40;100017.79;;;31.43
48894;BMP280;34710;35.798;139.446;2022-11-03T06:50:21;100013.46;;;31.19
48894;BMP280;34710;35.798;139.446;2022-11-03T06:52:52;100012.83;;;30.46
48894;BMP280;34710;35.798;139.446;2022-11-03T06:55:25;100009.35;;;30.18
48894;BMP280;34710;35.798;139.446;2022-11-03T06:57:59;100006.80;;;29.82
48894;BMP280;34710;35.798;139.446;2022-11-03T07:00:31;100011.99;;;29.43
48894;BMP280;34710;35.798;139.446;2022-11-03T07:03:07;100015.04;;;29.22
48894;BMP280;34710;35.798;139.446;2022-11-03T07:05:37;100018.51;;;28.94
48894;BMP280;34710;35.798;139.446;2022-11-03T07:08:18;100019.18;;;28.72
48894;BMP280;34710;35.798;139.446;2022-11-03T07:10:50;100020.42;;;28.76
48894;BMP280;34710;35.798;139.446;2022-11-03T07:13:26;100020.40;;;28.61
48894;BMP280;34710;35.798;139.446;2022-11-03T07:15:55;100018.72;;;28.34
48894;BMP280;34710;35.798;139.446;2022-11-03T07:18:26;100017.14;;;28.29
48894;BMP280;34710;35.798;139.446;2022-11-03T07:20:56;100019.05;;;28.13
48894;BMP280;34710;35.798;139.446;2022-11-03T07:23:29;100024.80;;;28.17
48894;BMP280;34710;35.798;139.446;2022-11-03T07:26:01;100030.36;;;27.99
48894;BMP280;34710;35.798;139.446;2022-11-03T07:28:35;100032.01;;;27.83
48894;BMP280;34710;35.798;139.446;2022-11-03T07:31:15;100036.59;;;27.77
48894;BMP280;34710;35.798;139.446;2022-11-03T07:33:47;100040.58;;;27.47
48894;BMP280;34710;35.798;139.446;2022-11-03T07:36:19;100041.90;;;27.44
48894;BMP280;34710;35.798;139.446;2022-11-03T07:38:52;100044.01;;;27.29
48894;BMP280;34710;35.798;139.446;2022-11-03T07:41:28;100046.79;;;26.95
48894;BMP280;34710;35.798;139.446;2022-11-03T07:44:01;100049.93;;;26.79
48894;BMP280;34710;35.798;139.446;2022-11-03T07:46:30;100045.69;;;26.88
48894;BMP280;34710;35.798;139.446;2022-11-03T07:49:01;100042.04;;;26.68
48894;BMP280;34710;35.798;139.446;2022-11-03T07:51:31;100042.55;;;26.40
48894;BMP280;34710;35.798;139.446;2022-11-03T07:54:08;100040.34;;;26.50
48894;BMP280;34710;35.798;139.446;2022-11-03T07:56:44;100041.39;;;26.29
48894;BMP280;34710;35.798;139.446;2022-11-03T07:59:17;100045.33;;;26.48
48894;BMP280;34710;35.798;139.446;2022-11-03T08:01:50;100051.20;;;26.41
48894;BMP280;34710;35.798;139.446;2022-11-03T08:04:22;100057.00;;;26.17
48894;BMP280;34710;35.798;139.446;2022-11-03T08:06:52;100053.47;;;26.05
48894;BMP280;34710;35.798;139.446;2022-11-03T08:09:21;100053.67;;;25.62
48894;BMP280;34710;35.798;139.446;2022-11-03T08:11:51;100055.23;;;25.72
48894;BMP280;34710;35.798;139.446;2022-11-03T08:14:21;100054.83;;;25.64
48894;BMP280;34710;35.798;139.446;2022-11-03T08:16:50;100046.18;;;25.56
48894;BMP280;34710;35.798;139.446;2022-11-03T08:19:19;100051.91;;;25.34
48894;BMP280;34710;35.798;139.446;2022-11-03T08:21:48;100054.74;;;25.27
48894;BMP280;34710;35.798;139.446;2022-11-03T08:24:16;100050.96;;;25.74
48894;BMP280;34710;35.798;139.446;2022-11-03T08:26:45;100052.78;;;25.21
48894;BMP280;34710;35.798;139.446;2022-11-03T08:29:14;100053.42;;;25.07
48894;BMP280;34710;35.798;139.446;2022-11-03T08:31:44;100059.35;;;25.60
48894;BMP280;34710;35.798;139.446;2022-11-03T08:34:12;100065.65;;;25.16
48894;BMP280;34710;35.798;139.446;2022-11-03T08:36:42;100070.46;;;25.01
48894;BMP280;34710;35.798;139.446;2022-11-03T08:39:12;100075.91;;;25.07
48894;BMP280;34710;35.798;139.446;2022-11-03T08:41:43;100072.10;;;24.89
48894;BMP280;34710;35.798;139.446;2022-11-03T08:44:13;100073.21;;;24.86
48894;BMP280;34710;35.798;139.446;2022-11-03T08:46:43;100081.88;;;24.92
48894;BMP280;34710;35.798;139.446;2022-11-03T08:49:13;100086.71;;;25.15
48894;BMP280;34710;35.798;139.446;2022-11-03T08:51:41;100092.02;;;25.03
48894;BMP280;34710;35.798;139.446;2022-11-03T08:54:11;100095.98;;;25.01
48894;BMP280;34710;35.798;139.446;2022-11-03T08:56:41;100096.93;;;24.70
48894;BMP280;34710;35.798;139.446;2022-11-03T08:59:09;100100.16;;;24.73
48894;BMP280;34710;35.798;139.446;2022-11-03T09:01:38;100103.84;;;24.56
48894;BMP280;34710;35.798;139.446;2022-11-03T09:04:07;100106.68;;;24.45
48894;BMP280;34710;35.798;139.446;2022-11-03T09:06:36;100104.98;;;24.47
48894;BMP280;34710;35.798;139.446;2022-11-03T09:09:06;100107.40;;;24.41
48894;BMP280;34710;35.798;139.446;2022-11-03T09:11:35;100103.16;;;24.30
48894;BMP280;34710;35.798;139.446;2022-11-03T09:14:03;100104.65;;;24.41
48894;BMP280;34710;35.798;139.446;2022-11-03T09:16:33;100106.51;;;24.06
48894;BMP280;34710;35.798;139.446;2022-11-03T09:19:01;100107.64;;;24.10
48894;BMP280;34710;35.798;139.446;2022-11-03T09:21:31;100101.13;;;24.31
48894;BMP280;34710;35.798;139.446;2022-11-03T09:24:00;100098.81;;;23.92
48894;BMP280;34710;35.798;139.446;2022-11-03T09:26:29;100095.28;;;24.39
48894;BMP280;34710;35.798;139.446;2022-11-03T09:28:59;100091.30;;;23.99
48894;BMP280;34710;35.798;139.446;2022-11-03T09:31:28;100096.63;;;23.98
48894;BMP280;34710;35.798;139.446;2022-11-03T09:33:57;100102.34;;;24.19
48894;BMP280;34710;35.798;139.446;2022-11-03T09:36:27;100103.01;;;24.08
48894;BMP280;34710;35.798;139.446;2022-11-03T09:38:56;100103.10;;;23.77
48894;BMP280;34710;35.798;139.446;2022-11-03T09:41:25;100105.77;;;23.85
48894;BMP280;34710;35.798;139.446;2022-11-03T09:43:57;100108.42;;;23.58
48894;BMP280;34710;35.798;139.446;2022-11-03T09:46:28;100100.81;;;23.85
48894;BMP280;34710;35.798;139.446;2022-11-03T09:48:59;100098.67;;;23.50
48894;BMP280;34710;35.798;139.446;2022-11-03T09:51:29;100097.13;;;23.42
48894;BMP280;34710;35.798;139.446;2022-11-03T09:54:03;100092.54;;;23.37
48894;BMP280;34710;35.798;139.446;2022-11-03T09:56:35;100092.06;;;23.22
48894;BMP280;34710;35.798;139.446;2022-11-03T09:59:13;100086.66;;;23.15
48894;BMP280;34710;35.798;139.446;2022-11-03T10:01:44;100086.35;;;22.94
48894;BMP280;34710;35.798;139.446;2022-11-03T10:04:13;100084.13;;;22.98
48894;BMP280;34710;35.798;139.446;2022-11-03T10:06:42;100081.99;;;22.97
48894;BMP280;34710;35.798;139.446;2022-11-03T10:09:16;100082.95;;;22.96
48894;BMP280;34710;35.798;139.446;2022-11-03T10:11:46;100084.03;;;22.94
48894;BMP280;34710;35.798;139.446;2022-11-03T10:14:16;100083.60;;;22.87
48894;BMP280;34710;35.798;139.446;2022-11-03T10:16:52;100084.93;;;23.07
48894;BMP280;34710;35.798;139.446;2022-11-03T10:19:24;100087.31;;;23.13
48894;BMP280;34710;35.798;139.446;2022-11-03T10:21:53;100088.84;;;23.10
48894;BMP280;34710;35.798;139.446;2022-11-03T10:24:23;100077.12;;;22.73
48894;BMP280;34710;35.798;139.446;2022-11-03T10:26:54;100070.95;;;22.59
48894;BMP280;34710;35.798;139.446;2022-11-03T10:29:24;100074.18;;;22.83
48894;BMP280;34710;35.798;139.446;2022-11-03T10:31:55;100074.00;;;22.49
48894;BMP280;34710;35.798;139.446;2022-11-03T10:34:27;100071.78;;;22.67
48894;BMP280;34710;35.798;139.446;2022-11-03T10:37:18;100068.16;;;22.59
48894;BMP280;34710;35.798;139.446;2022-11-03T10:39:51;100069.47;;;22.46
48894;BMP280;34710;35.798;139.446;2022-11-03T10:42:23;100063.52;;;22.35
48894;BMP280;34710;35.798;139.446;2022-11-03T10:44:54;100061.54;;;22.21
48894;BMP280;34710;35.798;139.446;2022-11-03T10:47:36;100058.53;;;22.31
48894;BMP280;34710;35.798;139.446;2022-11-03T10:50:20;100061.41;;;22.09
48894;BMP280;34710;35.798;139.446;2022-11-03T10:52:52;100062.52;;;22.03
48894;BMP280;34710;35.798;139.446;2022-11-03T10:55:24;100064.83;;;22.08
48894;BMP280;34710;35.798;139.446;2022-11-03T10:57:53;100070.56;;;22.20
48894;BMP280;34710;35.798;139.446;2022-11-03T11:00:23;100073.22;;;21.95
48894;BMP280;34710;35.798;139.446;2022-11-03T11:02:56;100075.84;;;21.94
48894;BMP280;34710;35.798;139.446;2022-11-03T11:05:27;100078.23;;;21.87
48894;BMP280;34710;35.798;139.446;2022-11-03T11:07:56;100077.34;;;21.83
48894;BMP280;34710;35.798;139.446;2022-11-03T11:10:28;100080.74;;;22.00
48894;BMP280;34710;35.798;139.446;2022-11-03T11:13:23;100083.02;;;21.91
48894;BMP280;34710;35.798;139.446;2022-11-03T11:15:54;100085.16;;;21.80
48894;BMP280;34710;35.798;139.446;2022-11-03T11:19:02;100089.53;;;22.53
48894;BMP280;34710;35.798;139.446;2022-11-03T11:22:01;100092.23;;;21.45
48894;BMP280;34710;35.798;139.446;2022-11-03T11:25:12;100096.86;;;22.32
48894;BMP280;34710;35.798;139.446;2022-11-03T11:28:19;100103.88;;;22.22
48894;BMP280;34710;35.798;139.446;2022-11-03T11:31:28;100108.11;;;21.54
48894;BMP280;34710;35.798;139.446;2022-11-03T11:34:53;100109.88;;;21.34
48894;BMP280;34710;35.798;139.446;2022-11-03T11:37:39;100117.06;;;21.12
48894;BMP280;34710;35.798;139.446;2022-11-03T11:40:13;100119.14;;;21.22
48894;BMP280;34710;35.798;139.446;2022-11-03T11:43:25;100120.02;;;21.20
48894;BMP280;34710;35.798;139.446;2022-11-03T11:46:38;100125.23;;;21.68
48894;BMP280;34710;35.798;139.446;2022-11-03T11:49:23;100121.58;;;21.18
48894;BMP280;34710;35.798;139.446;2022-11-03T11:51:52;100124.76;;;21.12
48894;BMP280;34710;35.798;139.446;2022-11-03T11:54:21;100129.61;;;21.01
48894;BMP280;34710;35.798;139.446;2022-11-03T11:56:50;100130.15;;;20.92
48894;BMP280;34710;35.798;139.446;2022-11-03T11:59:21;100133.39;;;20.83
48894;BMP280;34710;35.798;139.446;2022-11-03T12:01:52;100134.61;;;20.72
48894;BMP280;34710;35.798;139.446;2022-11-03T12:04:25;100135.09;;;20.82
48894;BMP280;34710;35.798;139.446;2022-11-03T12:06:56;100139.80;;;20.61
48894;BMP280;34710;35.798;139.446;2022-11-03T12:09:26;100142.10;;;20.78
48894;BMP280;34710;35.798;139.446;2022-11-03T12:11:57;100137.26;;;20.70
48894;BMP280;34710;35.798;139.446;2022-11-03T12:14:34;100132.52;;;20.62
48894;BMP280;34710;35.798;139.446;2022-11-03T12:17:36;100136.46;;;21.13
48894;BMP280;34710;35.798;139.446;2022-11-03T12:20:42;100132.27;;;20.68
48894;BMP280;34710;35.798;139.446;2022-11-03T12:23:32;100129.16;;;20.20
48894;BMP280;34710;35.798;139.446;2022-11-03T12:26:03;100125.43;;;19.97
48894;BMP280;34710;35.798;139.446;2022-11-03T12:28:33;100127.76;;;19.88
48894;BMP280;34710;35.798;139.446;2022-11-03T12:31:03;100128.65;;;20.42
48894;BMP280;34710;35.798;139.446;2022-11-03T12:33:32;100135.24;;;20.02
48894;BMP280;34710;35.798;139.446;2022-11-03T12:36:01;100135.94;;;20.40
48894;BMP280;34710;35.798;139.446;2022-11-03T12:38:31;100137.47;;;20.14
48894;BMP280;34710;35.798;139.446;2022-11-03T12:41:00;100134.04;;;20.13
48894;BMP280;34710;35.798;139.446;2022-11-03T12:43:31;100133.40;;;20.21
48894;BMP280;34710;35.798;139.446;2022-11-03T12:46:00;100134.11;;;19.96
48894;BMP280;34710;35.798;139.446;2022-11-03T12:48:30;100135.20;;;20.16
48894;BMP280;34710;35.798;139.446;2022-11-03T12:50:59;100137.96;;;19.91
48894;BMP280;34710;35.798;139.446;2022-11-03T12:53:28;100139.44;;;20.05
48894;BMP280;34710;35.798;139.446;2022-11-03T12:55:57;100138.82;;;20.01
48894;BMP280;34710;35.798;139.446;2022-11-03T12:58:27;100135.11;;;19.87
48894;BMP280;34710;35.798;139.446;2022-11-03T13:00:56;100133.08;;;19.92
48894;BMP280;34710;35.798;139.446;2022-11-03T13:03:25;100132.42;;;19.94
48894;BMP280;34710;35.798;139.446;2022-11-03T13:05:54;100131.38;;;19.90
48894;BMP280;34710;35.798;139.446;2022-11-03T13:08:24;100136.44;;;19.89
48894;BMP280;34710;35.798;139.446;2022-11-03T13:10:53;100136.64;;;19.72
48894;BMP280;34710;35.798;139.446;2022-11-03T13:13:22;100137.17;;;19.84
48894;BMP280;34710;35.798;139.446;2022-11-03T13:15:52;100131.20;;;19.87
48894;BMP280;34710;35.798;139.446;2022-11-03T13:18:21;100125.88;;;19.85
48894;BMP280;34710;35.798;139.446;2022-11-03T13:20:50;100126.35;;;19.77
48894;BMP280;34710;35.798;139.446;2022-11-03T13:23:19;100128.32;;;19.71
48894;BMP280;34710;35.798;139.446;2022-11-03T13:25:47;100125.29;;;19.50
48894;BMP280;34710;35.798;139.446;2022-11-03T13:28:17;100124.38;;;19.37
48894;BMP280;34710;35.798;139.446;2022-11-03T13:30:46;100123.07;;;19.65
48894;BMP280;34710;35.798;139.446;2022-11-03T13:33:15;100114.95;;;19.53
48894;BMP280;34710;35.798;139.446;2022-11-03T13:35:45;100108.00;;;19.19
48894;BMP280;34710;35.798;139.446;2022-11-03T13:38:13;100102.05;;;19.52
48894;BMP280;34710;35.798;139.446;2022-11-03T13:40:42;100100.69;;;19.15
48894;BMP280;34710;35.798;139.446;2022-11-03T13:43:11;100099.20;;;18.95
48894;BMP280;34710;35.798;139.446;2022-11-03T13:45:39;100101.53;;;18.79
48894;BMP280;34710;35.798;139.446;2022-11-03T13:48:09;100104.86;;;19.13
48894;BMP280;34710;35.798;139.446;2022-11-03T13:50:38;100104.33;;;18.99
48894;BMP280;34710;35.798;139.446;2022-11-03T13:53:07;100097.07;;;19.02
48894;BMP280;34710;35.798;139.446;2022-11-03T13:55:36;100100.71;;;18.81
48894;BMP280;34710;35.798;139.446;2022-11-03T13:58:05;100101.76;;;18.83
48894;BMP280;34710;35.798;139.446;2022-11-03T14:00:35;100099.45;;;18.56
48894;BMP280;34710;35.798;139.446;2022-11-03T14:03:04;100096.35;;;18.88